createdAt,value
2022-09-20T00:01:28.085Z,9.07
2022-09-20T00:03:57.790Z,8.98
2022-09-20T00:06:27.198Z,8.98
2022-09-20T00:08:53.837Z,8.99
2022-09-20T00:11:23.834Z,8.96
2022-09-20T00:13:54.599Z,9.01
2022-09-20T00:16:31.372Z,8.98
2022-09-20T00:18:59.362Z,8.96
2022-09-20T00:21:29.597Z,8.99
2022-09-20T00:23:59.964Z,8.93
2022-09-20T00:26:27.829Z,8.89
2022-09-20T00:28:54.618Z,8.90
2022-09-20T00:31:21.126Z,8.85
2022-09-20T00:34:06.050Z,8.93
2022-09-20T00:36:32.637Z,8.89
2022-09-20T00:39:01.882Z,8.96
2022-09-20T00:41:29.578Z,8.80
2022-09-20T00:43:56.043Z,8.87
2022-09-20T00:46:39.447Z,8.88
2022-09-20T00:49:21.393Z,8.86
2022-09-20T00:51:55.333Z,8.77
2022-09-20T00:54:25.302Z,8.78
2022-09-20T00:56:52.349Z,8.75
2022-09-20T00:59:23.188Z,8.78
2022-09-20T01:01:56.162Z,8.77
2022-09-20T01:04:25.186Z,8.74
2022-09-20T01:06:54.570Z,8.66
2022-09-20T01:09:20.975Z,8.63
2022-09-20T01:11:49.482Z,8.70
2022-09-20T01:14:19.037Z,8.62
2022-09-20T01:16:45.826Z,8.61
2022-09-20T01:19:27.632Z,8.52
2022-09-20T01:21:54.517Z,8.56
2022-09-20T01:24:31.599Z,8.60
2022-09-20T01:27:24.436Z,8.63
2022-09-20T01:36:37.220Z,8.55
2022-09-20T01:39:28.392Z,8.63
2022-09-20T01:41:59.481Z,8.48
2022-09-20T01:44:25.752Z,8.50
2022-09-20T01:47:00.576Z,8.50
2022-09-20T01:49:56.734Z,8.58
2022-09-20T01:53:03.149Z,8.50
2022-09-20T01:55:38.076Z,8.48
2022-09-20T01:59:07.192Z,8.50
2022-09-20T02:02:10.883Z,8.47
2022-09-20T02:05:05.480Z,8.43
2022-09-20T02:07:54.274Z,8.44
2022-09-20T02:10:54.533Z,8.47
2022-09-20T02:13:29.873Z,8.47
2022-09-20T02:16:22.270Z,8.46
2022-09-20T02:19:18.440Z,8.39
2022-09-20T02:22:12.608Z,8.38
2022-09-20T02:24:50.616Z,8.36
2022-09-20T02:27:19.659Z,8.38
2022-09-20T02:29:52.595Z,8.31
2022-09-20T02:32:40.404Z,8.41
2022-09-20T02:35:24.387Z,8.40
2022-09-20T02:38:02.944Z,8.35
2022-09-20T02:40:40.323Z,8.38
2022-09-20T02:43:33.536Z,8.27
2022-09-20T02:46:24.412Z,8.39
2022-09-20T02:49:28.565Z,8.33
2022-09-20T02:52:00.049Z,8.32
2022-09-20T02:54:33.848Z,8.29
2022-09-20T02:57:06.106Z,8.44
2022-09-20T02:59:44.835Z,8.28
2022-09-20T03:02:25.939Z,8.39
2022-09-20T03:05:19.273Z,8.32
2022-09-20T03:08:08.971Z,8.32
2022-09-20T03:10:50.283Z,8.21
2022-09-20T03:13:46.852Z,8.26
2022-09-20T03:16:13.208Z,8.24
2022-09-20T03:19:12.007Z,8.30
2022-09-20T03:22:15.795Z,8.29
2022-09-20T03:24:54.451Z,8.18
2022-09-20T03:27:35.358Z,8.25
2022-09-20T03:30:19.891Z,8.30
2022-09-20T03:33:00.923Z,8.23
2022-09-20T03:35:53.546Z,8.21
2022-09-20T03:38:44.241Z,8.31
2022-09-20T03:41:22.058Z,8.39
2022-09-20T03:44:20.529Z,8.27
2022-09-20T03:46:48.194Z,8.37
2022-09-20T03:49:38.473Z,8.26
2022-09-20T03:52:46.962Z,8.28
2022-09-20T03:55:16.141Z,8.27
2022-09-20T03:57:57.682Z,8.22
2022-09-20T04:01:00.809Z,8.15
2022-09-20T04:03:51.295Z,8.19
2022-09-20T04:06:48.992Z,8.30
2022-09-20T04:09:29.092Z,8.29
2022-09-20T04:12:05.726Z,8.24
2022-09-20T04:14:40.732Z,8.23
2022-09-20T04:17:19.264Z,8.22
2022-09-20T04:19:52.083Z,8.18
2022-09-20T04:22:22.685Z,8.32
2022-09-20T04:25:09.626Z,8.28
2022-09-20T04:27:45.131Z,8.30
2022-09-20T04:30:11.705Z,8.29
2022-09-20T04:32:55.939Z,8.25
2022-09-20T04:36:18.634Z,8.29
2022-09-20T04:38:52.334Z,8.17
2022-09-20T04:41:51.222Z,8.18
2022-09-20T04:44:50.944Z,8.12
2022-09-20T04:47:54.748Z,8.16
2022-09-20T04:50:35.200Z,8.17
2022-09-20T04:53:10.627Z,8.31
2022-09-20T04:55:48.859Z,8.35
2022-09-20T04:58:40.483Z,8.34
2022-09-20T05:01:19.512Z,8.32
2022-09-20T05:03:59.110Z,8.34
2022-09-20T05:06:41.064Z,8.42
2022-09-20T05:09:33.625Z,8.54
2022-09-20T05:12:30.929Z,8.62
2022-09-20T05:15:16.601Z,8.62
2022-09-20T05:18:23.506Z,8.55
2022-09-20T05:21:12.281Z,8.49
2022-09-20T05:23:41.648Z,8.56
2022-09-20T05:26:13.629Z,8.48
2022-09-20T05:28:58.916Z,8.49
2022-09-20T05:31:44.615Z,8.62
2022-09-20T05:34:27.028Z,8.47
2022-09-20T05:37:01.950Z,8.53
2022-09-20T05:39:34.393Z,8.50
2022-09-20T05:42:39.095Z,8.62
2022-09-20T05:45:14.219Z,8.48
2022-09-20T05:47:53.454Z,8.56
2022-09-20T05:50:47.773Z,8.56
2022-09-20T05:53:32.303Z,8.56
2022-09-20T05:56:12.995Z,8.67
2022-09-20T05:59:01.996Z,8.87
2022-09-20T06:01:37.547Z,8.82
2022-09-20T06:04:22.454Z,8.65
2022-09-20T06:07:03.438Z,8.90
2022-09-20T06:10:15.163Z,9.09
2022-09-20T06:13:02.999Z,9.09
2022-09-20T06:15:38.656Z,9.10
2022-09-20T06:18:18.234Z,9.13
2022-09-20T06:21:16.892Z,9.24
2022-09-20T06:23:44.094Z,9.17
2022-09-20T06:26:17.915Z,9.19
2022-09-20T06:28:54.202Z,9.21
2022-09-20T06:31:24.158Z,9.09
2022-09-20T06:34:04.292Z,9.25
2022-09-20T06:36:54.913Z,9.29
2022-09-20T06:39:56.747Z,9.23
2022-09-20T06:42:26.532Z,9.29
2022-09-20T06:44:54.309Z,9.40
2022-09-20T06:47:21.712Z,9.52
2022-09-20T06:49:50.079Z,9.42
2022-09-20T06:52:18.942Z,9.45
2022-09-20T06:54:46.951Z,9.64
2022-09-20T06:57:17.282Z,9.77
2022-09-20T06:59:43.982Z,9.74
2022-09-20T07:02:10.948Z,9.79
2022-09-20T07:04:37.742Z,9.80
2022-09-20T07:07:09.234Z,9.90
2022-09-20T07:09:36.051Z,9.88
2022-09-20T07:12:02.568Z,9.87
2022-09-20T07:14:28.963Z,9.91
2022-09-20T07:16:55.347Z,9.86
2022-09-20T07:19:23.264Z,10.03
2022-09-20T07:21:49.600Z,10.02
2022-09-20T07:24:15.990Z,10.28
2022-09-20T07:26:58.093Z,10.12
2022-09-20T07:29:25.640Z,10.06
2022-09-20T07:31:52.074Z,10.10
2022-09-20T07:34:20.234Z,10.17
2022-09-20T07:36:51.093Z,10.10
2022-09-20T07:39:17.536Z,10.17
2022-09-20T07:41:48.298Z,10.05
2022-09-20T07:44:21.475Z,10.16
2022-09-20T07:46:52.999Z,10.15
2022-09-20T07:49:20.345Z,9.97
2022-09-20T07:51:46.813Z,10.07
2022-09-20T07:54:13.424Z,10.08
2022-09-20T07:56:40.147Z,9.97
2022-09-20T07:59:06.611Z,10.05
2022-09-20T08:01:33.476Z,9.91
2022-09-20T08:03:59.949Z,10.05
2022-09-20T08:06:26.772Z,10.01
2022-09-20T08:08:53.429Z,10.12
2022-09-20T08:11:27.810Z,10.16
2022-09-20T08:14:10.513Z,10.25
2022-09-20T08:16:39.824Z,10.58
2022-09-20T08:19:06.637Z,10.60
2022-09-20T08:21:37.878Z,10.49
2022-09-20T08:24:04.294Z,10.48
2022-09-20T08:26:35.770Z,10.34
2022-09-20T08:29:02.234Z,10.30
2022-09-20T08:31:36.610Z,10.27
2022-09-20T08:34:06.720Z,10.19
2022-09-20T08:36:36.801Z,10.12
2022-09-20T08:41:55.580Z,10.05
2022-09-20T08:44:27.939Z,10.09
2022-09-20T08:47:14.921Z,10.15
2022-09-20T08:49:46.165Z,10.12
2022-09-20T08:52:19.381Z,10.30
2022-09-20T08:54:46.717Z,10.48
2022-09-20T08:57:17.362Z,10.65
2022-09-20T08:59:44.584Z,10.68
2022-09-20T09:02:20.341Z,10.75
2022-09-20T09:04:49.319Z,10.90
2022-09-20T09:07:21.826Z,10.91
2022-09-20T09:09:51.852Z,10.92
2022-09-20T09:12:24.320Z,10.95
2022-09-20T09:14:59.570Z,11.12
2022-09-20T09:17:28.677Z,11.28
2022-09-20T09:20:22.813Z,11.30
2022-09-20T09:23:05.073Z,11.12
2022-09-20T09:25:41.811Z,11.19
2022-09-20T09:28:08.083Z,11.22
2022-09-20T09:30:47.654Z,11.26
2022-09-20T09:33:30.372Z,11.32
2022-09-20T09:36:14.936Z,11.28
2022-09-20T09:38:46.004Z,11.33
2022-09-20T09:41:20.317Z,11.42
2022-09-20T09:43:59.266Z,11.37
2022-09-20T09:46:30.412Z,11.29
2022-09-20T09:49:18.095Z,11.40
2022-09-20T09:52:12.892Z,11.29
2022-09-20T09:54:44.554Z,11.17
2022-09-20T09:57:36.999Z,11.16
2022-09-20T10:00:18.162Z,11.14
2022-09-20T10:03:13.236Z,11.08
2022-09-20T10:05:42.380Z,11.08
2022-09-20T10:08:20.063Z,11.12
2022-09-20T10:11:12.109Z,11.08
2022-09-20T10:13:47.497Z,10.99
2022-09-20T10:16:32.762Z,11.06
2022-09-20T10:19:06.291Z,11.00
2022-09-20T10:21:43.477Z,10.97
2022-09-20T10:24:21.901Z,11.08
2022-09-20T10:26:53.646Z,11.12
2022-09-20T10:29:29.124Z,11.11
2022-09-20T10:32:36.550Z,11.09
2022-09-20T10:35:11.914Z,11.33
2022-09-20T10:38:21.555Z,11.41
2022-09-20T10:41:18.490Z,11.51
2022-09-20T10:44:10.353Z,11.68
2022-09-20T10:46:53.521Z,11.72
2022-09-20T10:49:27.144Z,11.70
2022-09-20T10:52:14.742Z,11.59
2022-09-20T10:55:11.267Z,11.42
2022-09-20T10:57:56.406Z,11.46
2022-09-20T11:00:25.345Z,11.26
2022-09-20T11:03:09.747Z,11.26
2022-09-20T11:05:52.822Z,11.30
2022-09-20T11:08:32.199Z,11.27
2022-09-20T11:11:07.511Z,11.23
2022-09-20T11:13:41.420Z,11.28
2022-09-20T11:16:23.161Z,11.26
2022-09-20T11:18:54.593Z,11.28
2022-09-20T11:21:27.732Z,11.30
2022-09-20T11:24:22.128Z,11.45
2022-09-20T11:26:53.377Z,11.45
2022-09-20T11:29:33.271Z,11.61
2022-09-20T11:32:21.441Z,11.63
2022-09-20T11:34:56.806Z,11.60
2022-09-20T11:37:29.680Z,11.55
2022-09-20T11:40:00.757Z,11.60
2022-09-20T11:42:33.005Z,11.48
2022-09-20T11:44:59.413Z,11.58
2022-09-20T11:47:55.556Z,11.55
2022-09-20T11:50:45.169Z,11.57
2022-09-20T11:53:26.720Z,11.70
2022-09-20T11:56:05.741Z,11.61
2022-09-20T11:58:48.158Z,11.69
2022-09-20T12:01:28.211Z,11.73
2022-09-20T12:04:20.510Z,11.68
2022-09-20T12:06:46.424Z,11.90
2022-09-20T12:09:29.476Z,11.88
2022-09-20T12:11:57.070Z,11.75
2022-09-20T12:14:27.290Z,11.70
2022-09-20T12:16:54.724Z,11.66
2022-09-20T12:19:38.696Z,11.66
2022-09-20T12:22:08.399Z,11.59
2022-09-20T12:24:44.526Z,11.61
2022-09-20T12:27:15.314Z,11.74
2022-09-20T12:29:47.722Z,11.73
2022-09-20T12:32:32.649Z,11.54
2022-09-20T12:34:59.005Z,11.35
2022-09-20T12:37:26.523Z,11.35
2022-09-20T12:39:55.749Z,11.36
2022-09-20T12:42:33.895Z,11.27
2022-09-20T12:45:07.136Z,11.09
2022-09-20T12:47:36.514Z,10.88
2022-09-20T12:50:31.679Z,10.85
2022-09-20T12:53:01.481Z,10.72
2022-09-20T12:56:01.942Z,10.78
2022-09-20T12:58:35.998Z,10.80
2022-09-20T13:01:05.078Z,10.75
2022-09-20T13:03:34.772Z,10.72
2022-09-20T13:06:07.077Z,10.82
2022-09-20T13:08:42.733Z,10.84
2022-09-20T13:11:43.700Z,10.97
2022-09-20T13:14:20.580Z,11.26
2022-09-20T13:17:19.197Z,11.27
2022-09-20T13:19:47.315Z,11.21
2022-09-20T13:22:21.960Z,11.34
2022-09-20T13:24:51.716Z,11.43
2022-09-20T13:27:23.448Z,11.41
2022-09-20T13:29:50.921Z,11.58
2022-09-20T13:32:30.686Z,11.69
2022-09-20T13:35:12.084Z,11.80
2022-09-20T13:37:58.340Z,11.79
2022-09-20T13:40:35.392Z,11.78
2022-09-20T13:43:23.071Z,11.74
2022-09-20T13:45:56.155Z,11.66
2022-09-20T13:48:29.724Z,11.68
2022-09-20T13:50:57.025Z,11.81
2022-09-20T13:53:40.584Z,11.73
2022-09-20T13:56:27.344Z,11.76
2022-09-20T13:58:54.311Z,11.70
2022-09-20T14:01:32.534Z,11.53
2022-09-20T14:04:21.512Z,11.50
2022-09-20T14:06:49.697Z,11.47
2022-09-20T14:09:26.468Z,11.38
2022-09-20T14:11:53.776Z,11.38
2022-09-20T14:14:23.144Z,11.44
2022-09-20T14:16:50.463Z,11.48
2022-09-20T14:19:20.277Z,11.42
2022-09-20T14:21:47.938Z,11.47
2022-09-20T14:24:14.394Z,11.44
2022-09-20T14:26:42.830Z,11.48
2022-09-20T14:29:33.906Z,11.41
2022-09-20T14:32:05.861Z,11.59
2022-09-20T14:34:36.226Z,11.58
2022-09-20T14:37:09.655Z,11.50
2022-09-20T14:39:49.125Z,11.54
2022-09-20T14:42:22.767Z,11.60
2022-09-20T14:44:53.013Z,11.82
2022-09-20T14:47:28.357Z,11.82
2022-09-20T14:49:55.820Z,11.87
2022-09-20T14:52:37.206Z,11.75
2022-09-20T14:55:03.483Z,11.79
2022-09-20T14:57:30.059Z,11.73
2022-09-20T14:59:59.777Z,11.75
2022-09-20T15:02:27.344Z,11.81
2022-09-20T15:04:57.278Z,11.74
2022-09-20T15:07:23.643Z,11.76
2022-09-20T15:09:49.984Z,11.76
2022-09-20T15:12:18.541Z,11.82
2022-09-20T15:14:45.853Z,11.77
2022-09-20T15:17:15.760Z,11.74
2022-09-20T15:19:42.200Z,11.64
2022-09-20T15:22:10.279Z,11.66
2022-09-20T15:24:36.619Z,11.65
2022-09-20T15:27:03.004Z,11.65
2022-09-20T15:29:29.848Z,11.70
2022-09-20T15:31:56.566Z,11.88
2022-09-20T15:34:23.124Z,11.87
2022-09-20T15:36:50.638Z,11.83
2022-09-20T15:39:17.206Z,11.81
2022-09-20T15:41:45.065Z,11.67
2022-09-20T15:44:11.437Z,11.65
2022-09-20T15:46:37.772Z,11.74
2022-09-20T15:49:06.507Z,11.68
2022-09-20T15:51:33.215Z,11.61
2022-09-20T15:54:06.208Z,11.48
2022-09-20T15:56:35.946Z,11.43
2022-09-20T15:59:05.111Z,11.29
2022-09-20T16:01:38.085Z,11.29
2022-09-20T16:04:09.771Z,11.27
2022-09-20T16:06:38.278Z,11.17
2022-09-20T16:09:05.412Z,11.16
2022-09-20T16:11:32.128Z,11.24
2022-09-20T16:14:00.039Z,11.08
2022-09-20T16:16:29.655Z,11.08
2022-09-20T16:19:14.553Z,10.95
2022-09-20T16:21:43.188Z,10.95
2022-09-20T16:24:10.316Z,10.84
2022-09-20T16:26:37.864Z,10.75
2022-09-20T16:29:05.975Z,10.73
2022-09-20T16:31:41.340Z,10.71
2022-09-20T16:34:07.876Z,10.60
2022-09-20T16:36:34.498Z,10.61
2022-09-20T16:39:01.080Z,10.46
2022-09-20T16:41:28.581Z,10.54
2022-09-20T16:43:55.148Z,10.45
2022-09-20T16:46:27.028Z,10.42
2022-09-20T16:48:55.071Z,10.58
2022-09-20T16:51:25.142Z,10.54
2022-09-20T16:53:55.971Z,10.69
2022-09-20T16:56:28.301Z,10.64
2022-09-20T16:58:55.112Z,10.68
2022-09-20T17:01:22.555Z,10.55
2022-09-20T17:03:49.224Z,10.55
2022-09-20T17:06:16.748Z,10.65
2022-09-20T17:08:44.840Z,10.53
2022-09-20T17:11:17.346Z,10.52
2022-09-20T17:13:45.265Z,10.38
2022-09-20T17:16:13.954Z,10.47
2022-09-20T17:18:42.714Z,10.31
2022-09-20T17:21:14.385Z,10.27
2022-09-20T17:23:50.640Z,10.31
2022-09-20T17:26:20.256Z,10.40
2022-09-20T17:28:49.651Z,10.33
2022-09-20T17:31:18.995Z,10.17
2022-09-20T17:33:45.823Z,10.08
2022-09-20T17:36:15.370Z,10.06
2022-09-20T17:38:42.565Z,10.04
2022-09-20T17:41:13.998Z,10.02
2022-09-20T17:43:42.205Z,9.99
2022-09-20T17:46:26.158Z,9.99
2022-09-20T17:48:55.507Z,9.93
2022-09-20T17:51:24.816Z,9.82
2022-09-20T17:53:52.848Z,9.87
2022-09-20T17:56:23.170Z,9.69
2022-09-20T17:58:50.063Z,9.63
2022-09-20T18:01:18.396Z,9.49
2022-09-20T18:03:46.701Z,9.41
2022-09-20T18:06:21.946Z,9.31
2022-09-20T18:08:53.384Z,9.31
2022-09-20T18:11:23.002Z,9.30
2022-09-20T18:13:49.643Z,9.27
2022-09-20T18:16:18.263Z,9.15
2022-09-20T18:18:46.439Z,9.11
2022-09-20T18:21:18.122Z,9.07
2022-09-20T18:23:45.603Z,9.04
2022-09-20T18:26:23.793Z,8.87
2022-09-20T18:29:07.937Z,8.88
2022-09-20T18:31:36.844Z,8.80
2022-09-20T18:34:06.108Z,8.70
2022-09-20T18:36:35.143Z,8.76
2022-09-20T18:39:03.041Z,8.85
2022-09-20T18:41:32.875Z,8.85
2022-09-20T18:44:01.248Z,8.83
2022-09-20T18:46:30.517Z,8.84
2022-09-20T18:48:59.907Z,8.74
2022-09-20T18:51:28.769Z,8.63
2022-09-20T18:53:56.384Z,8.78
2022-09-20T18:56:27.377Z,8.74
2022-09-20T18:59:02.420Z,8.76
2022-09-20T19:01:44.181Z,8.74
2022-09-20T19:04:32.429Z,8.77
2022-09-20T19:07:10.436Z,8.66
2022-09-20T19:09:48.392Z,8.63
2022-09-20T19:12:25.847Z,8.50
2022-09-20T19:15:16.626Z,8.56
2022-09-20T19:18:19.288Z,8.53
2022-09-20T19:20:56.607Z,8.52
2022-09-20T19:23:47.958Z,8.49
2022-09-20T19:26:28.732Z,8.40
2022-09-20T19:29:00.018Z,8.42
2022-09-20T19:31:30.779Z,8.40
2022-09-20T19:33:59.486Z,8.41
2022-09-20T19:36:39.617Z,8.35
2022-09-20T19:39:34.213Z,8.44
2022-09-20T19:42:37.676Z,8.39
2022-09-20T19:45:40.523Z,8.46
2022-09-20T19:48:20.418Z,8.45
2022-09-20T19:50:52.481Z,8.40
2022-09-20T19:53:26.989Z,8.48
2022-09-20T19:56:16.328Z,8.47
2022-09-20T19:58:44.866Z,8.52
2022-09-20T20:01:11.736Z,8.85
2022-09-20T20:03:38.960Z,9.17
2022-09-20T20:06:14.339Z,9.31
2022-09-20T20:09:06.050Z,9.44
2022-09-20T20:11:53.923Z,9.55
2022-09-20T20:14:26.250Z,9.57
2022-09-20T20:17:21.701Z,9.57
2022-09-20T20:20:00.901Z,9.66
2022-09-20T20:22:45.760Z,9.71
2022-09-20T20:25:31.211Z,9.59
2022-09-20T20:27:57.727Z,9.55
2022-09-20T20:30:24.118Z,9.54
2022-09-20T20:32:57.876Z,9.55
2022-09-20T20:35:25.642Z,9.51
2022-09-20T20:37:52.947Z,9.46
2022-09-20T20:40:19.520Z,9.46
2022-09-20T20:42:46.590Z,9.28
2022-09-20T20:45:13.666Z,9.38
2022-09-20T20:47:40.813Z,9.32
2022-09-20T20:50:07.799Z,9.34
2022-09-20T20:52:34.376Z,9.19
2022-09-20T20:55:00.870Z,9.34
2022-09-20T20:57:27.972Z,9.23
2022-09-20T20:59:54.295Z,9.19
2022-09-20T21:02:21.556Z,9.21
2022-09-20T21:04:48.087Z,9.19
2022-09-20T21:07:15.076Z,9.12
2022-09-20T21:09:41.409Z,9.09
2022-09-20T21:12:07.862Z,9.13
2022-09-20T21:14:34.602Z,9.05
2022-09-20T21:17:01.873Z,8.97
2022-09-20T21:19:28.271Z,8.95
2022-09-20T21:21:54.674Z,8.80
2022-09-20T21:24:21.241Z,8.82
2022-09-20T21:26:48.432Z,8.71
2022-09-20T21:29:16.001Z,8.61
2022-09-20T21:31:44.266Z,8.60
2022-09-20T21:34:12.430Z,8.44
2022-09-20T21:36:41.321Z,8.37
2022-09-20T21:39:08.519Z,8.33
2022-09-20T21:41:37.090Z,8.26
2022-09-20T21:44:05.201Z,8.24
2022-09-20T21:46:36.990Z,8.24
2022-09-20T21:49:06.299Z,8.14
2022-09-20T21:51:33.486Z,8.11
2022-09-20T21:54:01.513Z,8.06
2022-09-20T21:56:36.608Z,7.90
2022-09-20T21:59:04.313Z,7.86
2022-09-20T22:01:34.493Z,7.81
2022-09-20T22:04:04.861Z,7.64
2022-09-20T22:06:34.110Z,7.74
2022-09-20T22:09:04.110Z,7.61
2022-09-20T22:11:38.746Z,7.60
2022-09-20T22:14:06.500Z,7.44
2022-09-20T22:16:35.752Z,7.39
2022-09-20T22:19:02.369Z,7.37
2022-09-20T22:21:31.788Z,7.34
2022-09-20T22:24:00.824Z,7.27
2022-09-20T22:26:30.668Z,7.13
2022-09-20T22:28:57.764Z,7.18
2022-09-20T22:31:36.416Z,7.11
2022-09-20T22:34:05.516Z,7.12
2022-09-20T22:36:34.663Z,6.98
2022-09-20T22:39:02.520Z,6.95
2022-09-20T22:41:28.910Z,6.83
2022-09-20T22:43:55.432Z,6.93
2022-09-20T22:46:24.656Z,6.96
2022-09-20T22:48:51.043Z,6.93
2022-09-20T22:51:31.294Z,6.85
2022-09-20T22:53:57.655Z,6.76
2022-09-20T22:56:28.804Z,6.79
2022-09-20T22:59:07.244Z,6.76
2022-09-20T23:01:36.232Z,6.63
2022-09-20T23:04:08.151Z,6.69
2022-09-20T23:06:38.051Z,6.58
2022-09-20T23:09:07.886Z,6.63
2022-09-20T23:11:35.127Z,6.63
2022-09-20T23:14:04.798Z,6.68
2022-09-20T23:16:33.252Z,6.57
2022-09-20T23:19:00.685Z,6.55
2022-09-20T23:21:28.137Z,6.56
2022-09-20T23:23:56.986Z,6.49
2022-09-20T23:26:25.360Z,6.49
2022-09-20T23:29:03.654Z,6.41
2022-09-20T23:31:31.831Z,6.42
2022-09-20T23:34:00.184Z,6.37
2022-09-20T23:36:30.079Z,6.24
2022-09-20T23:38:56.979Z,6.34
2022-09-20T23:41:25.584Z,6.29
2022-09-20T23:43:52.372Z,6.27
2022-09-20T23:46:20.436Z,6.24
2022-09-20T23:48:47.104Z,6.22
2022-09-20T23:51:16.115Z,6.22
2022-09-20T23:53:42.845Z,6.25
2022-09-20T23:56:10.554Z,6.16
2022-09-20T23:58:38.648Z,6.28
